createdAt,value
2022-11-05T00:01:16.600Z,11.00
2022-11-05T00:06:37.946Z,11.00
2022-11-05T00:11:59.248Z,11.00
2022-11-05T00:17:01.985Z,11.00
2022-11-05T00:22:22.889Z,10.90
2022-11-05T00:27:25.627Z,11.00
2022-11-05T00:32:28.545Z,10.90
2022-11-05T00:37:31.204Z,10.90
2022-11-05T00:42:52.002Z,10.90
2022-11-05T00:48:13.054Z,10.90
2022-11-05T00:53:15.684Z,11.00
2022-11-05T00:58:20.210Z,11.00
2022-11-05T01:03:28.347Z,11.00
2022-11-05T01:08:31.101Z,11.00
2022-11-05T01:13:33.719Z,10.90
2022-11-05T01:18:39.691Z,11.00
2022-11-05T01:23:42.598Z,11.00
2022-11-05T01:28:45.595Z,10.90
2022-11-05T01:33:48.437Z,11.00
2022-11-05T01:38:51.112Z,10.90
2022-11-05T01:43:57.539Z,10.90
2022-11-05T01:49:14.061Z,10.90
2022-11-05T01:54:22.259Z,10.90
2022-11-05T01:59:34.420Z,10.90
2022-11-05T02:04:50.856Z,10.90
2022-11-05T02:10:06.095Z,10.90
2022-11-05T02:15:14.186Z,10.90
2022-11-05T02:20:38.701Z,10.90
2022-11-05T02:26:09.303Z,10.90
2022-11-05T02:31:36.591Z,10.80
2022-11-05T02:37:15.715Z,10.70
2022-11-05T02:42:35.225Z,10.70
2022-11-05T02:48:05.452Z,10.60
2022-11-05T02:53:28.297Z,10.50
2022-11-05T02:58:31.177Z,10.30
2022-11-05T03:03:46.338Z,10.20
2022-11-05T03:09:07.309Z,10.10
2022-11-05T03:14:17.745Z,10.10
2022-11-05T03:19:32.642Z,10.00
2022-11-05T03:24:38.520Z,9.90
2022-11-05T03:29:53.250Z,9.90
2022-11-05T03:35:24.876Z,9.80
2022-11-05T03:40:30.036Z,9.80
2022-11-05T03:45:37.842Z,9.70
2022-11-05T03:50:42.505Z,9.60
2022-11-05T03:55:56.983Z,9.50
2022-11-05T04:01:03.464Z,9.50
2022-11-05T04:06:27.489Z,9.50
2022-11-05T04:11:48.719Z,9.40
2022-11-05T04:17:12.128Z,9.40
2022-11-05T04:22:33.038Z,9.30
2022-11-05T04:27:36.186Z,9.30
2022-11-05T04:32:38.846Z,9.30
2022-11-05T04:37:41.393Z,9.30
2022-11-05T04:42:43.978Z,9.30
2022-11-05T04:47:46.669Z,9.30
2022-11-05T04:52:49.467Z,9.30
2022-11-05T04:57:53.354Z,9.30
2022-11-05T05:02:56.068Z,9.30
2022-11-05T05:08:06.005Z,9.30
2022-11-05T05:13:11.484Z,9.30
2022-11-05T05:18:14.485Z,9.30
2022-11-05T05:23:17.083Z,9.30
2022-11-05T05:28:19.635Z,9.30
2022-11-05T05:33:22.307Z,9.30
2022-11-05T05:38:24.954Z,9.20
2022-11-05T05:43:32.369Z,9.20
2022-11-05T05:48:35.257Z,9.20
2022-11-05T05:53:38.911Z,9.20
2022-11-05T05:58:41.844Z,9.20
2022-11-05T06:03:44.647Z,9.20
2022-11-05T06:08:48.044Z,9.20
2022-11-05T06:13:50.835Z,9.10
2022-11-05T06:18:53.621Z,9.10
2022-11-05T06:23:56.766Z,9.10
2022-11-05T06:28:59.525Z,9.00
2022-11-05T06:34:03.046Z,8.90
2022-11-05T06:39:06.018Z,8.90
2022-11-05T06:44:08.753Z,8.80
2022-11-05T06:49:11.424Z,8.80
2022-11-05T06:54:14.517Z,8.80
2022-11-05T06:59:17.414Z,8.80
2022-11-05T07:04:20.173Z,8.80
2022-11-05T07:09:23.223Z,8.80
2022-11-05T07:14:27.655Z,8.70
2022-11-05T07:19:30.633Z,8.80
2022-11-05T07:24:33.314Z,8.80
2022-11-05T07:29:36.106Z,8.70
2022-11-05T07:34:38.867Z,8.70
2022-11-05T07:39:41.614Z,8.70
2022-11-05T07:44:44.356Z,8.70
2022-11-05T07:49:47.114Z,8.70
2022-11-05T07:54:49.844Z,8.70
2022-11-05T07:59:52.620Z,8.70
2022-11-05T08:04:55.424Z,8.70
2022-11-05T08:09:58.154Z,8.70
2022-11-05T08:15:00.809Z,8.80
2022-11-05T08:20:04.046Z,8.80
2022-11-05T08:25:07.544Z,8.70
2022-11-05T08:30:10.781Z,8.70
2022-11-05T08:35:13.406Z,8.70
2022-11-05T08:40:16.222Z,8.70
2022-11-05T08:45:19.003Z,8.70
2022-11-05T08:50:21.745Z,8.70
2022-11-05T08:55:24.964Z,8.60
2022-11-05T09:00:29.607Z,8.70
2022-11-05T09:05:38.315Z,8.60
2022-11-05T09:10:42.336Z,8.60
2022-11-05T09:15:45.347Z,8.70
2022-11-05T09:20:48.390Z,8.80
2022-11-05T09:25:51.302Z,8.80
2022-11-05T09:30:54.244Z,8.80
2022-11-05T09:36:00.266Z,8.80
2022-11-05T09:41:21.562Z,8.80
2022-11-05T09:46:26.844Z,8.90
2022-11-05T09:51:30.779Z,8.90
2022-11-05T09:56:41.230Z,8.90
2022-11-05T10:01:45.597Z,9.00
2022-11-05T10:07:04.444Z,9.00
2022-11-05T10:12:32.372Z,9.10
2022-11-05T10:17:39.505Z,9.00
2022-11-05T10:22:48.175Z,9.20
2022-11-05T10:27:55.472Z,9.20
2022-11-05T10:33:00.964Z,9.20
2022-11-05T10:38:03.985Z,9.30
2022-11-05T10:43:11.471Z,9.20
2022-11-05T10:48:23.278Z,9.30
2022-11-05T10:53:35.184Z,9.30
2022-11-05T10:58:42.366Z,9.30
2022-11-05T11:03:46.824Z,9.30
2022-11-05T11:08:50.646Z,9.30
2022-11-05T11:14:01.079Z,9.50
2022-11-05T11:19:04.360Z,9.40
2022-11-05T11:24:28.517Z,9.40
2022-11-05T11:29:41.969Z,9.30
2022-11-05T11:34:53.196Z,9.40
2022-11-05T11:40:13.904Z,9.40
2022-11-05T11:45:21.263Z,9.50
2022-11-05T11:50:44.298Z,9.50
2022-11-05T11:55:56.124Z,9.50
2022-11-05T12:01:31.928Z,9.50
2022-11-05T12:07:02.115Z,9.50
2022-11-05T12:12:16.009Z,9.60
2022-11-05T12:17:34.334Z,9.50
2022-11-05T12:22:52.346Z,9.50
2022-11-05T12:28:10.745Z,9.40
2022-11-05T12:33:47.285Z,9.40
2022-11-05T12:39:39.467Z,9.30
2022-11-05T12:45:18.586Z,9.40
2022-11-05T12:50:32.116Z,9.40
2022-11-05T12:55:45.518Z,9.40
2022-11-05T13:00:59.602Z,9.40
2022-11-05T13:06:14.495Z,9.50
2022-11-05T13:11:27.186Z,9.40
2022-11-05T13:16:49.834Z,9.50
2022-11-05T13:22:21.719Z,9.40
2022-11-05T13:27:43.534Z,9.40
2022-11-05T13:32:53.640Z,9.50
2022-11-05T13:38:22.894Z,9.50
2022-11-05T13:43:41.543Z,9.50
2022-11-05T13:49:18.947Z,9.50
2022-11-05T13:54:41.436Z,9.50
2022-11-05T14:00:02.445Z,9.40
2022-11-05T14:05:09.296Z,9.40
2022-11-05T14:10:45.946Z,9.50
2022-11-05T14:16:10.737Z,9.50
2022-11-05T14:21:33.161Z,9.50
2022-11-05T14:26:36.021Z,9.40
2022-11-05T14:32:07.777Z,9.40
2022-11-05T14:37:10.557Z,9.40
2022-11-05T14:42:22.456Z,9.50
2022-11-05T14:47:29.255Z,9.50
2022-11-05T14:52:32.583Z,9.50
2022-11-05T14:57:55.624Z,9.50
2022-11-05T15:03:01.695Z,9.40
2022-11-05T15:08:28.496Z,9.50
2022-11-05T15:13:40.734Z,9.50
2022-11-05T15:18:47.455Z,9.50
2022-11-05T15:23:54.288Z,9.50
2022-11-05T15:28:57.575Z,9.60
2022-11-05T15:34:20.125Z,9.50
2022-11-05T15:39:30.153Z,9.50
2022-11-05T15:44:41.294Z,9.50
2022-11-05T15:49:47.175Z,9.50
2022-11-05T15:55:19.256Z,9.50
2022-11-05T16:00:25.442Z,9.50
2022-11-05T16:05:42.093Z,9.50
2022-11-05T16:10:52.476Z,9.50
2022-11-05T16:15:57.301Z,9.50
2022-11-05T16:21:02.475Z,9.50
2022-11-05T16:26:05.233Z,9.50
2022-11-05T16:31:08.025Z,9.60
2022-11-05T16:36:11.467Z,9.50
2022-11-05T16:41:20.073Z,9.50
2022-11-05T16:46:24.379Z,9.60
2022-11-05T16:51:28.624Z,9.60
2022-11-05T16:56:31.885Z,9.60
2022-11-05T17:01:35.832Z,9.50
2022-11-05T17:06:38.740Z,9.50
2022-11-05T17:11:42.467Z,9.50
2022-11-05T17:16:45.606Z,9.40
2022-11-05T17:21:48.765Z,9.40
2022-11-05T17:26:51.664Z,9.40
2022-11-05T17:31:54.488Z,9.40
2022-11-05T17:36:57.206Z,9.30
2022-11-05T17:42:00.080Z,9.40
2022-11-05T17:47:03.065Z,9.40
2022-11-05T17:52:05.974Z,9.40
2022-11-05T17:57:08.794Z,9.30
2022-11-05T18:02:12.645Z,9.40
2022-11-05T18:07:15.665Z,9.40
2022-11-05T18:12:18.570Z,9.40
2022-11-05T18:17:21.280Z,9.30
2022-11-05T18:22:24.105Z,9.30
2022-11-05T18:27:27.863Z,9.30
2022-11-05T18:32:30.926Z,9.30
2022-11-05T18:37:33.659Z,9.20
2022-11-05T18:42:36.453Z,9.30
2022-11-05T18:47:39.593Z,9.30
2022-11-05T18:52:42.521Z,9.20
2022-11-05T18:57:45.254Z,9.30
2022-11-05T19:02:48.532Z,9.20
2022-11-05T19:07:53.815Z,9.10
2022-11-05T19:12:56.730Z,9.10
2022-11-05T19:17:59.834Z,9.10
2022-11-05T19:23:03.236Z,9.10
2022-11-05T19:28:06.185Z,9.10
2022-11-05T19:33:11.344Z,9.10
2022-11-05T19:38:14.496Z,9.10
2022-11-05T19:43:17.489Z,9.00
2022-11-05T19:48:21.315Z,9.10
2022-11-05T19:53:24.335Z,9.10
2022-11-05T19:58:27.056Z,9.10
2022-11-05T20:03:30.308Z,9.10
2022-11-05T20:08:43.489Z,9.10
2022-11-05T20:13:57.875Z,9.10
2022-11-05T20:19:00.695Z,9.10
2022-11-05T20:24:04.375Z,9.10
2022-11-05T20:29:07.298Z,9.10
2022-11-05T20:34:10.749Z,9.10
2022-11-05T20:39:13.685Z,9.10
2022-11-05T20:44:16.465Z,9.00
2022-11-05T20:49:24.989Z,9.00
2022-11-05T20:54:28.325Z,9.10
2022-11-05T20:59:31.050Z,9.10
2022-11-05T21:04:33.975Z,9.10
2022-11-05T21:09:36.756Z,9.10
2022-11-05T21:14:41.378Z,9.10
2022-11-05T21:19:44.424Z,9.10
2022-11-05T21:24:47.106Z,9.10
2022-11-05T21:29:49.954Z,9.10
2022-11-05T21:34:52.927Z,9.10
2022-11-05T21:39:55.690Z,9.10
2022-11-05T21:45:00.498Z,9.00
2022-11-05T21:50:04.204Z,9.00
2022-11-05T21:55:25.913Z,9.00
2022-11-05T22:00:29.726Z,9.00
2022-11-05T22:05:32.526Z,9.00
2022-11-05T22:10:35.226Z,8.90
2022-11-05T22:15:38.028Z,8.90
2022-11-05T22:20:40.916Z,8.90
2022-11-05T22:25:43.835Z,8.90
2022-11-05T22:30:46.686Z,8.90
2022-11-05T22:35:49.575Z,8.90
2022-11-05T22:40:52.475Z,8.90
2022-11-05T22:45:55.195Z,8.90
2022-11-05T22:51:04.944Z,8.90
2022-11-05T22:56:20.162Z,8.80
2022-11-05T23:01:24.242Z,8.90
2022-11-05T23:06:54.464Z,8.80
2022-11-05T23:11:57.682Z,8.80
2022-11-05T23:17:18.778Z,8.80
2022-11-05T23:22:48.493Z,8.80
2022-11-05T23:27:53.680Z,8.80
2022-11-05T23:32:56.744Z,8.80
2022-11-05T23:38:18.055Z,8.80
2022-11-05T23:43:39.465Z,8.90
2022-11-05T23:48:42.133Z,8.80
2022-11-05T23:53:45.265Z,8.80
2022-11-05T23:58:48.034Z,8.90
